Time;durP1;ratioP1;P1;durP2;ratioP2;P2;SDS_P1;SDS_P2;PMS_P1;PMS_P2;Temp;Humidity;BMP_temperature;BMP_pressure;BME280_temperature;BME280_humidity;BME280_pressure;Samples;Min_cycle;Max_cycle;Signal;HPM_P1;HPM_P2
2023/05/23 00:01:15;;;;;;;31.13;22.77;;;16.50;99.90;;;;;;5114351;28;20397;-86
2023/05/23 00:03:41;;;;;;;29.20;21.67;;;16.50;99.90;;;;;;5113913;28;20564;-86
2023/05/23 00:06:07;;;;;;;26.15;15.75;;;16.50;99.90;;;;;;5112675;28;20115;-86
2023/05/23 00:08:33;;;;;;;30.38;22.15;;;16.40;99.90;;;;;;5113699;28;20039;-86
2023/05/23 00:10:59;;;;;;;28.90;22.02;;;16.40;99.90;;;;;;5113670;28;20171;-86
2023/05/23 00:13:25;;;;;;;34.30;24.95;;;16.40;99.90;;;;;;5114878;28;20032;-86
2023/05/23 00:15:51;;;;;;;32.47;17.23;;;16.40;99.90;;;;;;5114747;28;20047;-86
2023/05/23 00:18:17;;;;;;;36.05;25.25;;;16.30;99.90;;;;;;5114538;28;20397;-85
2023/05/23 00:20:45;;;;;;;29.73;21.67;;;16.30;99.90;;;;;;5114041;28;20080;-85
2023/05/23 00:23:17;;;;;;;29.50;21.98;;;16.40;99.90;;;;;;5113471;28;20051;-85
2023/05/23 00:25:47;;;;;;;24.02;14.07;;;16.40;99.90;;;;;;5113792;28;20054;-85
2023/05/23 00:28:13;;;;;;;24.67;18.23;;;16.30;99.90;;;;;;5113525;28;20093;-85
2023/05/23 00:30:39;;;;;;;25.38;17.65;;;16.30;99.90;;;;;;5113837;28;20043;-85
2023/05/23 00:33:05;;;;;;;23.60;18.02;;;16.30;99.90;;;;;;5114432;28;20035;-86
2023/05/23 00:35:30;;;;;;;24.55;16.67;;;16.30;99.90;;;;;;5114029;28;20082;-85
2023/05/23 00:37:56;;;;;;;21.20;15.98;;;16.20;99.90;;;;;;5113526;28;20032;-85
2023/05/23 00:40:22;;;;;;;22.55;11.13;;;16.30;99.90;;;;;;5114094;28;20126;-85
2023/05/23 00:42:48;;;;;;;22.13;15.93;;;16.20;99.90;;;;;;5114058;28;20156;-85
2023/05/23 00:45:14;;;;;;;20.25;15.50;;;16.20;99.90;;;;;;5112724;28;20035;-85
2023/05/23 00:47:41;;;;;;;21.30;11.75;;;16.10;99.90;;;;;;5113931;28;20036;-85
2023/05/23 00:50:10;;;;;;;19.48;13.02;;;16.10;99.90;;;;;;5113565;28;20409;-85
2023/05/23 00:52:37;;;;;;;20.67;16.63;;;16.00;99.90;;;;;;5113627;28;20038;-85
2023/05/23 00:55:03;;;;;;;18.58;10.57;;;16.00;99.90;;;;;;5113120;28;20047;-85
2023/05/23 00:57:29;;;;;;;16.38;10.65;;;16.00;99.90;;;;;;5112997;28;20040;-85
2023/05/23 00:59:55;;;;;;;16.42;13.13;;;16.00;99.90;;;;;;5112781;28;20114;-85
2023/05/23 01:02:20;;;;;;;18.92;13.70;;;16.00;99.90;;;;;;5111841;28;20031;-85
2023/05/23 01:04:53;;;;;;;15.75;12.48;;;16.00;99.90;;;;;;5113378;28;20124;-85
2023/05/23 01:07:19;;;;;;;15.52;9.38;;;16.00;99.90;;;;;;5113667;28;20130;-85
2023/05/23 01:09:45;;;;;;;15.27;13.07;;;16.00;99.90;;;;;;5112034;28;20037;-85
2023/05/23 01:12:46;;;;;;;14.20;9.07;;;16.00;99.90;;;;;;5113414;28;20039;-86
2023/05/23 01:15:18;;;;;;;14.23;11.32;;;15.90;99.90;;;;;;5113325;28;20047;-85
2023/05/23 01:17:49;;;;;;;13.90;9.70;;;16.00;99.90;;;;;;5113306;28;20077;-85
2023/05/23 01:20:44;;;;;;;15.73;12.45;;;15.90;99.90;;;;;;5112309;28;20032;-85
2023/05/23 01:23:34;;;;;;;14.35;11.10;;;16.00;99.90;;;;;;5105085;28;20059;-86
2023/05/23 01:26:18;;;;;;;13.00;10.85;;;15.90;99.90;;;;;;5112521;28;20074;-85
2023/05/23 01:28:47;;;;;;;12.93;8.10;;;16.00;99.90;;;;;;5113258;28;20485;-85
2023/05/23 01:31:16;;;;;;;15.30;9.70;;;15.90;99.90;;;;;;5112947;28;20065;-85
2023/05/23 01:33:43;;;;;;;14.20;12.30;;;15.90;99.90;;;;;;5094919;28;20082;-86
2023/05/23 01:36:13;;;;;;;15.68;12.50;;;15.90;99.90;;;;;;5113109;28;20082;-85
2023/05/23 01:38:39;;;;;;;13.68;10.68;;;15.90;99.90;;;;;;5112971;28;20035;-86
2023/05/23 01:41:04;;;;;;;13.93;11.80;;;15.90;99.90;;;;;;5112923;28;20032;-85
2023/05/23 01:43:30;;;;;;;13.02;7.88;;;15.90;99.90;;;;;;5113019;28;20088;-85
2023/05/23 01:45:57;;;;;;;13.35;11.63;;;15.80;99.90;;;;;;5113065;28;20036;-85
2023/05/23 01:48:25;;;;;;;15.88;13.15;;;15.80;99.90;;;;;;5112297;28;20393;-85
2023/05/23 01:50:52;;;;;;;18.40;13.77;;;15.90;99.90;;;;;;5111935;28;20040;-85
2023/05/23 01:53:21;;;;;;;18.42;15.57;;;15.90;99.90;;;;;;5112109;28;20043;-85
2023/05/23 01:55:46;;;;;;;21.30;17.55;;;15.90;99.90;;;;;;5111917;28;20048;-85
2023/05/23 01:58:12;;;;;;;19.60;16.15;;;15.80;99.90;;;;;;5112160;28;20120;-85
2023/05/23 02:00:38;;;;;;;20.58;17.00;;;15.80;99.90;;;;;;5112399;28;20089;-85
2023/05/23 02:03:04;;;;;;;21.25;18.30;;;15.80;99.90;;;;;;5112560;28;20044;-85
2023/05/23 02:05:30;;;;;;;22.10;17.30;;;15.80;99.90;;;;;;5093897;28;20040;-85
2023/05/23 02:07:56;;;;;;;21.02;17.65;;;15.80;99.90;;;;;;5112750;28;20028;-85
2023/05/23 02:10:21;;;;;;;18.23;12.23;;;15.80;99.90;;;;;;5112089;28;20062;-85
2023/05/23 02:12:47;;;;;;;19.67;15.68;;;15.70;99.90;;;;;;5112573;28;20036;-85
2023/05/23 02:15:13;;;;;;;19.95;15.88;;;15.70;99.90;;;;;;5112526;28;20523;-85
2023/05/23 02:17:40;;;;;;;19.27;15.77;;;15.70;99.90;;;;;;5112169;28;20397;-85
2023/05/23 02:20:06;;;;;;;19.05;14.93;;;15.70;99.90;;;;;;5111834;28;20070;-85
2023/05/23 02:22:32;;;;;;;18.50;14.13;;;15.70;99.90;;;;;;5111457;28;20043;-85
2023/05/23 02:24:57;;;;;;;19.80;14.52;;;15.60;99.90;;;;;;5111504;28;20519;-85
2023/05/23 02:27:23;;;;;;;16.63;9.18;;;15.60;99.90;;;;;;5111323;28;20370;-86
2023/05/23 02:29:49;;;;;;;15.18;13.13;;;15.50;99.90;;;;;;5093466;28;20132;-85
2023/05/23 02:32:14;;;;;;;16.73;12.23;;;15.60;99.90;;;;;;5112075;28;20447;-85
2023/05/23 02:34:40;;;;;;;16.70;8.90;;;15.60;99.90;;;;;;5112261;28;20039;-85
2023/05/23 02:37:06;;;;;;;15.15;11.45;;;15.50;99.90;;;;;;5112297;28;20047;-85
2023/05/23 02:39:33;;;;;;;18.17;12.60;;;15.50;99.90;;;;;;5111946;28;20050;-85
2023/05/23 02:41:59;;;;;;;18.77;12.27;;;15.50;99.90;;;;;;5112212;28;20046;-85
2023/05/23 02:44:24;;;;;;;15.27;7.95;;;15.50;99.90;;;;;;5112113;28;20039;-85
2023/05/23 02:46:50;;;;;;;16.67;8.80;;;15.40;99.90;;;;;;5112067;28;20501;-85
2023/05/23 02:49:16;;;;;;;17.75;11.05;;;15.40;99.90;;;;;;5111653;28;20042;-86
2023/05/23 02:51:41;;;;;;;16.70;8.27;;;15.40;99.90;;;;;;5110978;28;20081;-86
2023/05/23 02:54:07;;;;;;;21.42;12.60;;;15.30;99.90;;;;;;5111185;28;20404;-86
2023/05/23 02:56:32;;;;;;;16.52;7.47;;;15.30;99.90;;;;;;5111071;28;20085;-86
2023/05/23 02:58:58;;;;;;;18.67;9.88;;;15.30;99.90;;;;;;5111522;28;20571;-87
2023/05/23 03:01:24;;;;;;;19.67;11.70;;;15.20;99.90;;;;;;5115750;28;20086;-86
2023/05/23 03:03:49;;;;;;;17.98;8.25;;;15.20;99.90;;;;;;5115611;28;20040;-86
2023/05/23 03:06:15;;;;;;;17.30;7.63;;;15.20;99.90;;;;;;5116313;28;20039;-86
2023/05/23 03:08:41;;;;;;;17.63;10.45;;;15.10;99.90;;;;;;5115973;28;20040;-87
2023/05/23 03:11:07;;;;;;;17.35;10.93;;;15.10;99.90;;;;;;5114265;28;20510;-86
2023/05/23 03:13:34;;;;;;;14.50;7.07;;;15.10;99.90;;;;;;5115969;28;20080;-86
2023/05/23 03:16:00;;;;;;;15.05;5.80;;;15.10;99.90;;;;;;5115858;28;20136;-86
2023/05/23 03:18:25;;;;;;;15.52;9.73;;;15.10;99.90;;;;;;5115878;28;20135;-86
2023/05/23 03:20:51;;;;;;;17.38;9.80;;;15.00;99.90;;;;;;5115377;28;20039;-86
2023/05/23 03:23:16;;;;;;;14.07;6.72;;;15.10;99.90;;;;;;5114847;28;20036;-86
2023/05/23 03:25:42;;;;;;;16.38;9.15;;;15.00;99.90;;;;;;5114753;28;20043;-86
2023/05/23 03:28:08;;;;;;;13.43;8.38;;;15.00;99.90;;;;;;5114803;28;20118;-86
2023/05/23 03:30:33;;;;;;;10.57;5.68;;;15.10;99.90;;;;;;5114491;28;20392;-86
2023/05/23 03:33:00;;;;;;;13.45;7.50;;;15.00;99.90;;;;;;5115589;28;20047;-86
2023/05/23 03:35:26;;;;;;;11.90;6.68;;;15.00;99.90;;;;;;5115701;28;20047;-86
2023/05/23 03:37:52;;;;;;;17.60;7.93;;;15.00;99.90;;;;;;5115319;28;20116;-86
2023/05/23 03:40:17;;;;;;;13.13;7.03;;;14.90;99.90;;;;;;5115212;28;20422;-86
2023/05/23 03:42:43;;;;;;;15.25;8.13;;;14.90;99.90;;;;;;5115298;28;20032;-87
2023/05/23 03:45:08;;;;;;;12.98;4.65;;;14.90;99.90;;;;;;5115316;28;20042;-86
2023/05/23 03:47:34;;;;;;;14.30;6.50;;;14.90;99.90;;;;;;5115342;27;20039;-86
2023/05/23 03:50:00;;;;;;;14.70;6.40;;;14.80;99.90;;;;;;5114324;28;20492;-86
2023/05/23 03:52:25;;;;;;;19.45;9.68;;;14.70;99.90;;;;;;5114325;28;20039;-86
2023/05/23 03:54:51;;;;;;;19.77;9.25;;;14.80;99.90;;;;;;5114259;28;20039;-87
2023/05/23 03:57:16;;;;;;;22.92;10.38;;;14.70;99.90;;;;;;5114139;28;20106;-86
2023/05/23 03:59:42;;;;;;;19.67;9.88;;;14.80;99.90;;;;;;5114271;28;20496;-87
2023/05/23 04:02:08;;;;;;;17.40;5.47;;;14.70;99.90;;;;;;5114651;28;20028;-86
2023/05/23 04:04:33;;;;;;;16.02;6.18;;;14.60;99.90;;;;;;5115034;28;20497;-86
2023/05/23 04:07:00;;;;;;;19.30;6.82;;;14.60;99.90;;;;;;5114916;28;20039;-86
2023/05/23 04:09:26;;;;;;;20.48;9.90;;;14.50;99.90;;;;;;5114644;28;20031;-86
2023/05/23 04:11:51;;;;;;;16.77;6.03;;;14.60;99.90;;;;;;5113402;28;20028;-86
2023/05/23 04:14:19;;;;;;;17.10;6.80;;;14.50;99.90;;;;;;5114675;28;20258;-86
2023/05/23 04:16:44;;;;;;;21.38;9.50;;;14.50;99.90;;;;;;5113430;28;20047;-86
2023/05/23 04:19:11;;;;;;;15.48;6.13;;;14.50;99.90;;;;;;5114550;28;20469;-86
2023/05/23 04:21:36;;;;;;;18.90;10.32;;;14.50;99.90;;;;;;5113605;28;20077;-86
2023/05/23 04:24:02;;;;;;;21.77;10.55;;;14.40;99.90;;;;;;5113648;28;20036;-86
2023/05/23 04:26:28;;;;;;;16.55;5.68;;;14.50;99.90;;;;;;5113623;28;20450;-86
2023/05/23 04:28:54;;;;;;;21.13;9.88;;;14.40;99.90;;;;;;5113495;28;20035;-86
2023/05/23 04:31:23;;;;;;;17.08;9.82;;;14.40;99.90;;;;;;5114236;28;20027;-86
2023/05/23 04:33:48;;;;;;;14.38;5.05;;;14.50;99.90;;;;;;5113443;28;20438;-86
2023/05/23 04:36:15;;;;;;;16.50;6.85;;;14.40;99.90;;;;;;5114445;28;20563;-86
2023/05/23 04:38:40;;;;;;;19.38;8.93;;;14.30;99.90;;;;;;5114257;28;20119;-86
2023/05/23 04:41:08;;;;;;;18.52;8.05;;;14.40;99.90;;;;;;5114010;28;20118;-86
2023/05/23 04:43:36;;;;;;;13.55;5.20;;;14.40;99.90;;;;;;5114108;28;20600;-86
2023/05/23 04:46:02;;;;;;;15.80;5.28;;;14.40;99.90;;;;;;5114294;28;20114;-86
2023/05/23 04:48:28;;;;;;;15.15;7.13;;;14.30;99.90;;;;;;5113525;28;20043;-86
2023/05/23 04:50:55;;;;;;;14.52;4.47;;;14.30;99.90;;;;;;5094686;28;20043;-86
2023/05/23 04:53:21;;;;;;;13.68;4.82;;;14.20;99.90;;;;;;5113096;28;20085;-86
2023/05/23 04:55:47;;;;;;;16.80;7.25;;;14.20;99.90;;;;;;5113084;28;20048;-86
2023/05/23 04:58:12;;;;;;;14.13;8.10;;;14.20;99.90;;;;;;5113408;28;20042;-87
2023/05/23 05:00:38;;;;;;;16.20;7.80;;;14.30;99.90;;;;;;5113800;28;20031;-86
2023/05/23 05:03:04;;;;;;;12.00;3.90;;;14.30;99.90;;;;;;5113517;28;20075;-86
2023/05/23 05:05:29;;;;;;;11.40;4.15;;;14.20;99.90;;;;;;5113865;28;20072;-86
2023/05/23 05:07:55;;;;;;;15.18;7.10;;;14.10;99.90;;;;;;5113640;28;20032;-87
2023/05/23 05:10:21;;;;;;;14.20;7.03;;;14.20;99.90;;;;;;5113328;28;20039;-86
2023/05/23 05:12:48;;;;;;;10.75;3.67;;;14.20;99.90;;;;;;5113494;28;20044;-86
2023/05/23 05:15:18;;;;;;;10.80;3.72;;;14.20;99.90;;;;;;5113659;28;20042;-86
2023/05/23 05:17:44;;;;;;;13.48;4.63;;;14.10;99.90;;;;;;5113622;28;20035;-86
2023/05/23 05:20:10;;;;;;;14.93;6.90;;;14.00;99.90;;;;;;5113184;28;20382;-86
2023/05/23 05:22:39;;;;;;;17.05;6.85;;;14.10;99.90;;;;;;5112824;28;20036;-86
2023/05/23 05:25:06;;;;;;;11.00;3.60;;;14.10;99.90;;;;;;5112243;28;20096;-86
2023/05/23 05:27:32;;;;;;;13.25;4.20;;;14.00;99.90;;;;;;5112419;28;20044;-86
2023/05/23 05:30:03;;;;;;;14.68;6.53;;;14.00;99.90;;;;;;5111086;28;20397;-86
2023/05/23 05:32:30;;;;;;;14.77;6.07;;;14.00;99.90;;;;;;5112873;28;20036;-86
2023/05/23 05:34:55;;;;;;;15.98;7.10;;;14.10;99.90;;;;;;5113142;28;20489;-86
2023/05/23 05:37:21;;;;;;;12.35;4.47;;;14.10;99.90;;;;;;5113127;28;20104;-86
2023/05/23 05:39:47;;;;;;;18.67;6.95;;;14.00;99.90;;;;;;5112590;28;20044;-87
2023/05/23 05:42:12;;;;;;;14.30;6.43;;;14.10;99.90;;;;;;5113066;28;20099;-87
2023/05/23 05:44:38;;;;;;;12.30;4.20;;;14.10;99.90;;;;;;5112763;28;20528;-86
2023/05/23 05:47:06;;;;;;;10.10;3.70;;;14.00;99.90;;;;;;5112883;28;20032;-86
2023/05/23 05:49:32;;;;;;;15.63;6.28;;;13.90;99.90;;;;;;5112068;28;20032;-86
2023/05/23 05:51:57;;;;;;;14.05;5.63;;;14.00;99.90;;;;;;5111947;28;20065;-86
2023/05/23 05:54:23;;;;;;;12.75;3.85;;;14.00;99.90;;;;;;5111861;28;20400;-86
2023/05/23 05:56:49;;;;;;;11.15;3.17;;;13.90;99.90;;;;;;5112023;28;20043;-86
2023/05/23 05:59:15;;;;;;;15.48;7.45;;;13.80;99.90;;;;;;5112571;28;20393;-86
2023/05/23 06:01:40;;;;;;;11.88;4.22;;;13.80;99.90;;;;;;5112862;27;20185;-86
2023/05/23 06:04:06;;;;;;;12.57;5.15;;;13.80;99.90;;;;;;5114398;27;20030;-86
2023/05/23 06:06:31;;;;;;;15.20;4.03;;;13.70;99.90;;;;;;5133199;27;20453;-86
2023/05/23 06:08:58;;;;;;;15.15;7.47;;;13.60;99.90;;;;;;5131210;27;20041;-86
2023/05/23 06:11:23;;;;;;;12.52;4.85;;;13.70;99.90;;;;;;5109885;27;20031;-86
2023/05/23 06:13:49;;;;;;;16.45;7.85;;;13.60;99.90;;;;;;5113955;27;20027;-87
2023/05/23 06:16:15;;;;;;;13.63;4.05;;;13.70;99.90;;;;;;5106229;27;20452;-86
2023/05/23 06:18:40;;;;;;;20.55;9.02;;;13.60;99.90;;;;;;5129675;27;20035;-86
2023/05/23 06:21:06;;;;;;;14.13;5.60;;;13.60;99.90;;;;;;5131190;27;20118;-86
2023/05/23 06:23:32;;;;;;;10.73;4.57;;;13.60;99.90;;;;;;5114342;27;20043;-86
2023/05/23 06:25:58;;;;;;;20.88;9.50;;;13.50;99.90;;;;;;5100426;28;20054;-86
2023/05/23 06:28:24;;;;;;;17.15;5.57;;;13.60;99.90;;;;;;5100205;28;20086;-85
2023/05/23 06:30:49;;;;;;;10.82;4.10;;;13.50;99.90;;;;;;5095895;28;20493;-86
2023/05/23 06:33:15;;;;;;;18.23;5.30;;;13.50;99.90;;;;;;5091489;28;20065;-86
2023/05/23 06:35:42;;;;;;;18.45;8.20;;;13.40;99.90;;;;;;5072960;28;20043;-86
2023/05/23 06:38:07;;;;;;;13.00;4.60;;;13.40;99.90;;;;;;5091939;28;20040;-86
2023/05/23 06:40:33;;;;;;;17.17;4.85;;;13.40;99.90;;;;;;5091457;28;20039;-86
2023/05/23 06:42:59;;;;;;;12.88;4.05;;;13.30;99.90;;;;;;5091729;28;20089;-86
2023/05/23 06:45:25;;;;;;;15.57;4.97;;;13.30;99.90;;;;;;5073706;28;20050;-86
2023/05/23 06:47:50;;;;;;;15.18;7.10;;;13.30;99.90;;;;;;5091452;28;20440;-86
2023/05/23 06:50:20;;;;;;;12.15;4.38;;;13.40;99.90;;;;;;5091595;28;20036;-86
2023/05/23 06:52:45;;;;;;;11.65;3.72;;;13.40;99.90;;;;;;5091805;28;20119;-87
2023/05/23 06:55:16;;;;;;;10.75;3.38;;;13.30;99.90;;;;;;5091193;28;20500;-87
2023/05/23 06:57:42;;;;;;;12.98;4.25;;;13.30;99.90;;;;;;5090699;28;20081;-87
2023/05/23 07:00:09;;;;;;;12.27;4.50;;;13.30;99.90;;;;;;5090238;28;20122;-86
2023/05/23 07:02:34;;;;;;;13.68;6.43;;;13.30;99.90;;;;;;5072062;28;20039;-86
2023/05/23 07:05:00;;;;;;;14.95;6.97;;;13.40;99.90;;;;;;5132363;28;20051;-86
2023/05/23 07:07:26;;;;;;;12.32;3.72;;;13.40;99.90;;;;;;5130421;28;20621;-86
2023/05/23 07:09:51;;;;;;;11.27;3.92;;;13.40;99.90;;;;;;5131842;28;20074;-86
2023/05/23 07:12:17;;;;;;;12.43;3.67;;;13.30;99.90;;;;;;5131725;28;20035;-86
2023/05/23 07:14:43;;;;;;;14.73;6.20;;;13.30;99.90;;;;;;5132056;28;20042;-86
2023/05/23 07:17:08;;;;;;;11.85;4.38;;;13.40;99.90;;;;;;5132593;28;20043;-86
2023/05/23 07:19:34;;;;;;;13.60;3.95;;;13.50;99.90;;;;;;5132043;28;20680;-87
2023/05/23 07:22:00;;;;;;;12.07;4.82;;;13.50;99.90;;;;;;5096302;28;20499;-87
2023/05/23 07:24:25;;;;;;;13.45;3.78;;;13.40;99.90;;;;;;5131268;28;20039;-86
2023/05/23 07:26:51;;;;;;;13.50;4.75;;;13.40;99.90;;;;;;5095955;28;20046;-86
2023/05/23 07:29:17;;;;;;;9.48;3.30;;;13.50;99.90;;;;;;5131326;28;20115;-86
2023/05/23 07:31:42;;;;;;;14.00;3.50;;;13.50;99.90;;;;;;5132055;28;20035;-86
2023/05/23 07:34:08;;;;;;;11.93;3.20;;;13.50;99.90;;;;;;5132339;28;20072;-86
2023/05/23 07:36:34;;;;;;;12.63;3.40;;;13.50;99.90;;;;;;5096863;28;20039;-86
2023/05/23 07:39:00;;;;;;;9.70;3.05;;;13.50;99.90;;;;;;5132172;28;20035;-86
2023/05/23 07:41:26;;;;;;;13.90;2.88;;;13.50;99.90;;;;;;5131732;28;20050;-86
2023/05/23 07:43:52;;;;;;;14.70;3.38;;;13.50;99.90;;;;;;5131987;28;20043;-86
2023/05/23 07:46:17;;;;;;;16.50;4.68;;;13.60;99.90;;;;;;5134079;27;20070;-86
2023/05/23 07:48:43;;;;;;;16.48;4.82;;;13.70;99.90;;;;;;5134725;27;20043;-86
2023/05/23 07:51:09;;;;;;;9.63;2.85;;;13.80;99.90;;;;;;5134585;27;20405;-86
2023/05/23 07:53:38;;;;;;;15.52;4.93;;;13.80;99.90;;;;;;5134660;27;20540;-86
2023/05/23 07:56:05;;;;;;;18.30;5.78;;;13.90;99.90;;;;;;5135102;27;20140;-86
2023/05/23 07:58:30;;;;;;;16.90;5.10;;;14.00;99.90;;;;;;5135694;27;20043;-86
2023/05/23 08:00:56;;;;;;;17.00;5.53;;;14.10;99.90;;;;;;5135472;27;20114;-85
2023/05/23 08:03:23;;;;;;;16.95;3.38;;;14.20;99.90;;;;;;5135118;27;20055;-86
2023/05/23 08:05:48;;;;;;;17.38;4.80;;;14.10;99.90;;;;;;5134566;27;20069;-86
2023/05/23 08:08:15;;;;;;;11.60;2.92;;;14.10;99.90;;;;;;5134501;27;20035;-86
2023/05/23 08:10:40;;;;;;;18.05;5.03;;;14.10;99.90;;;;;;5133958;27;20069;-86
2023/05/23 08:13:08;;;;;;;20.90;5.40;;;14.10;99.90;;;;;;5134737;27;20075;-86
2023/05/23 08:15:34;;;;;;;17.17;4.90;;;14.10;99.90;;;;;;5135228;27;20095;-86
2023/05/23 08:18:00;;;;;;;13.75;3.42;;;14.10;99.90;;;;;;5135107;27;20126;-86
2023/05/23 08:20:29;;;;;;;15.05;2.88;;;14.00;99.90;;;;;;5134967;27;20035;-86
2023/05/23 08:22:59;;;;;;;20.13;4.07;;;14.00;99.90;;;;;;5135140;27;20077;-85
2023/05/23 08:25:29;;;;;;;16.42;3.47;;;13.90;99.90;;;;;;5135323;27;20042;-86
2023/05/23 08:27:58;;;;;;;13.65;3.83;;;13.90;99.90;;;;;;5135197;27;20092;-86
2023/05/23 08:30:25;;;;;;;17.77;3.83;;;14.00;99.90;;;;;;5134829;27;20027;-86
2023/05/23 08:32:55;;;;;;;19.85;5.65;;;14.00;99.90;;;;;;5135046;27;20039;-86
2023/05/23 08:35:21;;;;;;;17.88;3.10;;;14.10;99.90;;;;;;5134629;27;20145;-86
2023/05/23 08:37:47;;;;;;;11.70;3.33;;;14.20;99.90;;;;;;5133883;27;20035;-86
2023/05/23 08:40:18;;;;;;;17.63;5.55;;;14.20;99.90;;;;;;5133856;27;20039;-86
2023/05/23 08:42:44;;;;;;;17.23;5.18;;;14.30;99.90;;;;;;5133827;27;20062;-86
2023/05/23 08:45:10;;;;;;;17.90;4.88;;;14.40;99.90;;;;;;5134628;27;20039;-86
2023/05/23 08:47:37;;;;;;;14.68;3.03;;;14.50;99.90;;;;;;5128419;27;20066;-85
2023/05/23 08:50:07;;;;;;;15.75;3.10;;;14.50;99.90;;;;;;5113943;28;20075;-86
2023/05/23 08:52:34;;;;;;;18.33;5.35;;;14.40;99.90;;;;;;5114258;28;20043;-85
2023/05/23 08:55:02;;;;;;;17.70;5.10;;;14.50;99.90;;;;;;5114030;28;20631;-86
2023/05/23 08:57:29;;;;;;;19.42;5.40;;;14.60;99.90;;;;;;5113182;28;20058;-86
2023/05/23 08:59:56;;;;;;;15.25;2.78;;;14.70;99.90;;;;;;5096165;28;20036;-86
2023/05/23 09:02:22;;;;;;;18.58;5.40;;;14.70;99.90;;;;;;5113489;28;20062;-86
2023/05/23 09:04:48;;;;;;;19.95;5.70;;;14.70;99.90;;;;;;5113008;28;20036;-86
2023/05/23 09:07:15;;;;;;;13.30;3.30;;;14.80;99.90;;;;;;5115635;27;20581;-86
2023/05/23 09:09:41;;;;;;;12.68;3.50;;;14.90;99.90;;;;;;5115263;27;20147;-86
2023/05/23 09:12:07;;;;;;;20.58;5.25;;;14.90;99.90;;;;;;5113095;28;20475;-86
2023/05/23 09:14:32;;;;;;;16.60;3.55;;;15.00;99.90;;;;;;5113424;28;20096;-86
2023/05/23 09:17:01;;;;;;;9.88;3.25;;;15.10;99.90;;;;;;5113584;27;20083;-86
2023/05/23 09:19:27;;;;;;;16.42;4.90;;;15.30;99.90;;;;;;5113302;28;20032;-86
2023/05/23 09:21:54;;;;;;;19.00;5.13;;;15.40;99.70;;;;;;5113479;28;20042;-86
2023/05/23 09:24:20;;;;;;;16.35;3.72;;;15.60;95.60;;;;;;5123460;27;20492;-86
2023/05/23 09:26:47;;;;;;;15.30;4.75;;;15.60;96.40;;;;;;5134025;27;20050;-86
2023/05/23 09:29:13;;;;;;;16.05;5.20;;;15.70;96.10;;;;;;5133735;27;20046;-86
2023/05/23 09:31:39;;;;;;;18.25;4.07;;;15.80;94.80;;;;;;5098096;27;20039;-86
2023/05/23 09:34:05;;;;;;;14.90;4.65;;;15.80;94.80;;;;;;5132514;27;20047;-86
2023/05/23 09:36:35;;;;;;;14.68;4.93;;;15.80;94.30;;;;;;5121908;27;20110;-86
2023/05/23 09:39:04;;;;;;;16.70;5.40;;;15.80;92.90;;;;;;5122648;27;20031;-86
2023/05/23 09:41:32;;;;;;;15.70;5.03;;;15.80;92.10;;;;;;5111062;27;20036;-86
2023/05/23 09:43:58;;;;;;;20.13;4.95;;;15.80;91.90;;;;;;5110881;27;20099;-86
2023/05/23 09:46:27;;;;;;;15.13;4.68;;;15.90;92.10;;;;;;5112210;27;20031;-87
2023/05/23 09:48:54;;;;;;;18.20;5.68;;;16.10;92.20;;;;;;5112842;27;20067;-86
2023/05/23 09:51:21;;;;;;;18.83;5.15;;;16.20;91.50;;;;;;5112580;27;20126;-86
2023/05/23 09:53:47;;;;;;;15.38;5.00;;;16.30;90.60;;;;;;5113771;27;20039;-86
2023/05/23 09:56:16;;;;;;;18.63;5.70;;;16.40;90.20;;;;;;5118199;27;20046;-86
2023/05/23 09:58:45;;;;;;;15.63;3.28;;;16.40;89.80;;;;;;5122932;27;20046;-86
2023/05/23 10:01:12;;;;;;;14.13;3.33;;;16.40;90.20;;;;;;5087953;27;20036;-87
2023/05/23 10:03:48;;;;;;;17.45;4.55;;;16.40;90.70;;;;;;5083621;27;20039;-86
2023/05/23 10:06:25;;;;;;;18.67;4.80;;;16.50;90.20;;;;;;5121508;27;20133;-86
2023/05/23 10:09:00;;;;;;;18.98;4.97;;;16.60;88.30;;;;;;5120675;27;20035;-86
2023/05/23 10:11:52;;;;;;;16.70;4.97;;;16.70;87.80;;;;;;5120538;27;20092;-86
2023/05/23 10:14:17;;;;;;;17.02;5.30;;;16.70;86.00;;;;;;5122914;27;20039;-86
2023/05/23 10:17:06;;;;;;;17.10;4.80;;;16.70;85.20;;;;;;5122175;27;20050;-86
2023/05/23 10:19:45;;;;;;;15.77;5.35;;;16.70;85.70;;;;;;5122243;27;20070;-86
2023/05/23 10:22:12;;;;;;;16.55;6.10;;;16.70;84.10;;;;;;5103780;27;20073;-86
2023/05/23 10:24:39;;;;;;;16.52;5.07;;;16.70;83.40;;;;;;5118464;27;20047;-86
2023/05/23 10:27:05;;;;;;;14.15;4.45;;;16.70;82.80;;;;;;5122276;27;20023;-86
2023/05/23 10:29:32;;;;;;;17.65;5.00;;;16.70;82.10;;;;;;5122599;27;20149;-86
2023/05/23 10:31:59;;;;;;;18.35;4.80;;;16.70;82.40;;;;;;5118283;27;20360;-86
2023/05/23 10:34:43;;;;;;;13.90;2.88;;;16.70;82.60;;;;;;5122200;27;20043;-86
2023/05/23 10:37:36;;;;;;;16.55;4.47;;;16.80;84.20;;;;;;5121489;27;20046;-86
2023/05/23 10:40:12;;;;;;;18.33;4.72;;;16.90;82.80;;;;;;5104203;27;20393;-86
2023/05/23 10:42:47;;;;;;;15.60;4.55;;;16.90;81.90;;;;;;5118340;28;20031;-86
2023/05/23 10:45:25;;;;;;;18.25;3.08;;;17.00;80.70;;;;;;5121070;28;20096;-86
2023/05/23 10:47:52;;;;;;;14.48;4.60;;;17.00;80.60;;;;;;5121779;28;20028;-86
2023/05/23 10:50:33;;;;;;;14.88;4.25;;;17.10;80.20;;;;;;5120589;28;20503;-86
2023/05/23 10:53:01;;;;;;;15.85;4.30;;;17.30;79.60;;;;;;5118338;28;20023;-86
2023/05/23 10:55:31;;;;;;;15.68;4.60;;;17.40;79.20;;;;;;5121577;28;20032;-86
2023/05/23 10:58:19;;;;;;;15.40;4.45;;;17.50;78.60;;;;;;5119212;28;20043;-87
2023/05/23 11:01:01;;;;;;;16.80;4.30;;;17.40;76.10;;;;;;5121281;28;20031;-86
2023/05/23 11:03:47;;;;;;;13.50;3.40;;;17.30;76.30;;;;;;5122099;28;20096;-87
2023/05/23 11:06:42;;;;;;;15.07;4.18;;;17.30;76.80;;;;;;5118348;28;20038;-86
2023/05/23 11:09:19;;;;;;;13.50;3.95;;;17.40;76.20;;;;;;5108566;28;20048;-86
2023/05/23 11:11:56;;;;;;;14.32;4.10;;;17.50;76.00;;;;;;5129080;28;20041;-87
2023/05/23 11:14:32;;;;;;;13.82;4.25;;;17.60;76.80;;;;;;5114228;28;20126;-86
2023/05/23 11:17:15;;;;;;;15.50;3.72;;;17.60;75.00;;;;;;5132498;28;20114;-86
2023/05/23 11:20:06;;;;;;;13.77;3.90;;;17.60;75.10;;;;;;5131872;27;20039;-86
2023/05/23 11:22:33;;;;;;;16.15;3.60;;;17.60;74.10;;;;;;5136623;27;20043;-86
2023/05/23 11:25:00;;;;;;;14.68;3.95;;;17.60;73.70;;;;;;5136368;27;20039;-86
2023/05/23 11:27:33;;;;;;;13.98;3.83;;;17.50;73.70;;;;;;5136214;27;20507;-86
2023/05/23 11:30:06;;;;;;;15.43;3.65;;;17.60;74.30;;;;;;5135978;27;20111;-86
2023/05/23 11:32:31;;;;;;;;;;;17.70;74.80;;;;;;5136622;27;20130;-87
2023/05/23 11:35:05;;;;;;;12.63;3.90;;;17.70;75.40;;;;;;5100710;27;19959;-86
2023/05/23 11:37:31;;;;;;;13.60;3.72;;;17.90;74.20;;;;;;5135243;27;20039;-86
2023/05/23 11:39:57;;;;;;;15.27;3.88;;;18.00;73.20;;;;;;5135822;27;20035;-86
2023/05/23 11:42:23;;;;;;;14.43;4.70;;;18.00;72.70;;;;;;5100476;27;20043;-86
2023/05/23 11:44:50;;;;;;;12.30;4.15;;;18.00;72.60;;;;;;5135489;27;20551;-86
2023/05/23 11:47:16;;;;;;;12.15;4.03;;;17.90;71.90;;;;;;5100552;27;20050;-86
2023/05/23 11:49:45;;;;;;;11.48;3.80;;;18.00;71.70;;;;;;5129267;27;20112;-86
2023/05/23 11:52:11;;;;;;;14.90;4.45;;;18.00;72.00;;;;;;5123924;27;20836;-86
2023/05/23 11:54:40;;;;;;;16.67;4.07;;;18.20;71.70;;;;;;5121437;27;20097;-86
2023/05/23 11:57:05;;;;;;;11.40;3.78;;;18.20;71.90;;;;;;5106491;27;20046;-86
2023/05/23 11:59:32;;;;;;;13.27;3.72;;;18.20;71.70;;;;;;5125814;27;20440;-86
2023/05/23 12:01:58;;;;;;;13.43;3.70;;;18.20;71.00;;;;;;5121480;27;20493;-86
2023/05/23 12:04:25;;;;;;;12.80;3.80;;;18.20;70.70;;;;;;5124762;27;20058;-86
2023/05/23 12:06:51;;;;;;;17.60;3.92;;;18.30;71.20;;;;;;5125924;27;21253;-86
2023/05/23 12:09:17;;;;;;;16.50;4.15;;;18.40;70.60;;;;;;5088507;27;20510;-86
2023/05/23 12:11:44;;;;;;;13.82;3.80;;;18.30;70.10;;;;;;5121508;27;20083;-86
2023/05/23 12:14:14;;;;;;;10.90;3.25;;;18.30;69.70;;;;;;5079644;28;20130;-86
2023/05/23 12:16:46;;;;;;;13.05;3.35;;;18.20;68.60;;;;;;5113672;28;20421;-86
2023/05/23 12:19:13;;;;;;;15.52;3.75;;;18.30;68.90;;;;;;5114728;28;20044;-86
2023/05/23 12:21:43;;;;;;;13.88;4.10;;;18.40;69.20;;;;;;5114607;28;20043;-86
2023/05/23 12:24:20;;;;;;;15.80;4.38;;;18.50;68.90;;;;;;5114908;28;20071;-86
2023/05/23 12:26:59;;;;;;;12.27;3.80;;;18.50;68.50;;;;;;5096544;28;20495;-86
2023/05/23 12:29:32;;;;;;;12.57;3.33;;;18.50;68.30;;;;;;5114513;28;20035;-86
2023/05/23 12:31:59;;;;;;;14.18;3.70;;;18.50;68.50;;;;;;5113646;28;20036;-86
2023/05/23 12:34:25;;;;;;;12.90;3.28;;;18.50;68.50;;;;;;5114401;28;20040;-86
2023/05/23 12:36:57;;;;;;;13.57;4.10;;;18.60;69.30;;;;;;5114355;28;20044;-86
2023/05/23 12:39:34;;;;;;;12.80;3.30;;;18.60;67.20;;;;;;5114447;28;20096;-86